Terminal Aerodrome Forecast
Issued by NWS New Orleans/Baton Rouge, LA

Home | Current Version | Previous Version | Text Only | Print | Product List | Glossary On
Versions: 1 2 3 4 5 6 7 8 9 10 11 12 13 14 15 16 17 18
000
FTUS44 KLIX 301726
TAFNEW
TAF
KNEW 301726Z 3018/3118 17005KT 4SM RA BR SCT025 OVC100
     FM302000 18010KT P6SM OVC050
     FM310000 20007KT P6SM SCT130
     FM310200 24007KT P6SM FEW200
     FM310600 28009KT P6SM FEW150=

USA.gov is the U.S. government's official web portal to all federal, state and local government web resources and services.